Terminal Aerodrome Forecast
Issued by NWS

Home | Current Version | Previous Version | Text Only | Print | Product List | Glossary On
Versions: 1 2 3 4 5 6 7 8 9 10 11 12 13 14 15 16 17 18 19
000
FTUS43 KICT 232007 AAA
TAFCNU
TAF AMD
KCNU 232007Z 2320/2418 18017KT P6SM VCSH SCT025 BKN040
     FM240100 17013KT P6SM SCT040 BKN300
     FM241100 18007KT P6SM SCT130 OVC250=

USA.gov is the U.S. government's official web portal to all federal, state and local government web resources and services.